sensor_id;sensor_type;location;lat;lon;timestamp;P1;durP1;ratioP1;P2;durP2;ratioP2
38053;SDS011;23859;50.672;7.164;2023-05-07T00:00:22;9.50;;;5.70;;
38053;SDS011;23859;50.672;7.164;2023-05-07T00:02:48;10.50;;;6.15;;
38053;SDS011;23859;50.672;7.164;2023-05-07T00:05:14;7.72;;;5.65;;
38053;SDS011;23859;50.672;7.164;2023-05-07T00:07:41;7.18;;;5.38;;
38053;SDS011;23859;50.672;7.164;2023-05-07T00:10:07;8.23;;;5.75;;
38053;SDS011;23859;50.672;7.164;2023-05-07T00:12:33;7.57;;;5.78;;
38053;SDS011;23859;50.672;7.164;2023-05-07T00:15:01;7.18;;;5.97;;
38053;SDS011;23859;50.672;7.164;2023-05-07T00:17:29;9.15;;;6.30;;
38053;SDS011;23859;50.672;7.164;2023-05-07T00:19:55;9.85;;;6.07;;
38053;SDS011;23859;50.672;7.164;2023-05-07T00:22:21;8.13;;;6.03;;
38053;SDS011;23859;50.672;7.164;2023-05-07T00:24:47;7.57;;;5.85;;
38053;SDS011;23859;50.672;7.164;2023-05-07T00:27:13;8.48;;;5.82;;
38053;SDS011;23859;50.672;7.164;2023-05-07T00:29:39;8.27;;;5.63;;
38053;SDS011;23859;50.672;7.164;2023-05-07T00:32:05;7.38;;;5.15;;
38053;SDS011;23859;50.672;7.164;2023-05-07T00:34:31;9.07;;;6.80;;
38053;SDS011;23859;50.672;7.164;2023-05-07T00:36:57;10.65;;;5.93;;
38053;SDS011;23859;50.672;7.164;2023-05-07T00:39:23;8.68;;;6.45;;
38053;SDS011;23859;50.672;7.164;2023-05-07T00:41:50;8.57;;;5.88;;
38053;SDS011;23859;50.672;7.164;2023-05-07T00:44:16;8.23;;;5.13;;
38053;SDS011;23859;50.672;7.164;2023-05-07T00:46:43;6.90;;;5.07;;
38053;SDS011;23859;50.672;7.164;2023-05-07T00:49:10;11.88;;;5.65;;
38053;SDS011;23859;50.672;7.164;2023-05-07T00:51:36;7.80;;;5.25;;
38053;SDS011;23859;50.672;7.164;2023-05-07T00:54:02;6.55;;;5.25;;
38053;SDS011;23859;50.672;7.164;2023-05-07T00:56:28;7.93;;;5.20;;
38053;SDS011;23859;50.672;7.164;2023-05-07T00:58:56;10.10;;;6.10;;
38053;SDS011;23859;50.672;7.164;2023-05-07T01:01:22;6.47;;;4.50;;
38053;SDS011;23859;50.672;7.164;2023-05-07T01:03:48;7.00;;;5.50;;
38053;SDS011;23859;50.672;7.164;2023-05-07T01:06:14;8.85;;;5.00;;
38053;SDS011;23859;50.672;7.164;2023-05-07T01:08:41;9.32;;;5.63;;
38053;SDS011;23859;50.672;7.164;2023-05-07T01:11:08;7.18;;;5.10;;
38053;SDS011;23859;50.672;7.164;2023-05-07T01:13:35;7.28;;;5.13;;
38053;SDS011;23859;50.672;7.164;2023-05-07T01:16:02;7.40;;;5.13;;
38053;SDS011;23859;50.672;7.164;2023-05-07T01:18:29;7.32;;;4.95;;
38053;SDS011;23859;50.672;7.164;2023-05-07T01:20:55;6.85;;;5.18;;
38053;SDS011;23859;50.672;7.164;2023-05-07T01:23:23;7.07;;;5.05;;
38053;SDS011;23859;50.672;7.164;2023-05-07T01:25:54;7.45;;;5.70;;
38053;SDS011;23859;50.672;7.164;2023-05-07T01:28:21;11.90;;;5.68;;
38053;SDS011;23859;50.672;7.164;2023-05-07T01:30:51;14.60;;;5.93;;
38053;SDS011;23859;50.672;7.164;2023-05-07T01:33:20;10.65;;;5.97;;
38053;SDS011;23859;50.672;7.164;2023-05-07T01:35:48;9.80;;;5.40;;
38053;SDS011;23859;50.672;7.164;2023-05-07T01:38:18;6.45;;;5.28;;
38053;SDS011;23859;50.672;7.164;2023-05-07T01:40:46;13.98;;;5.50;;
38053;SDS011;23859;50.672;7.164;2023-05-07T01:43:13;9.52;;;6.38;;
38053;SDS011;23859;50.672;7.164;2023-05-07T01:45:39;10.82;;;6.25;;
38053;SDS011;23859;50.672;7.164;2023-05-07T01:48:06;8.95;;;5.95;;
38053;SDS011;23859;50.672;7.164;2023-05-07T01:50:34;9.90;;;6.35;;
38053;SDS011;23859;50.672;7.164;2023-05-07T01:53:02;11.55;;;6.50;;
38053;SDS011;23859;50.672;7.164;2023-05-07T01:55:28;8.77;;;5.93;;
38053;SDS011;23859;50.672;7.164;2023-05-07T01:57:54;9.02;;;5.35;;
38053;SDS011;23859;50.672;7.164;2023-05-07T02:00:20;9.57;;;6.63;;
38053;SDS011;23859;50.672;7.164;2023-05-07T02:02:46;10.13;;;6.22;;
38053;SDS011;23859;50.672;7.164;2023-05-07T02:05:12;10.45;;;5.90;;
38053;SDS011;23859;50.672;7.164;2023-05-07T02:07:38;9.55;;;6.03;;
38053;SDS011;23859;50.672;7.164;2023-05-07T02:10:04;11.05;;;6.22;;
38053;SDS011;23859;50.672;7.164;2023-05-07T02:12:31;14.10;;;7.20;;
38053;SDS011;23859;50.672;7.164;2023-05-07T02:15:00;11.15;;;6.38;;
38053;SDS011;23859;50.672;7.164;2023-05-07T02:17:27;10.50;;;6.65;;
38053;SDS011;23859;50.672;7.164;2023-05-07T02:19:56;8.73;;;6.32;;
38053;SDS011;23859;50.672;7.164;2023-05-07T02:22:22;10.27;;;6.05;;
38053;SDS011;23859;50.672;7.164;2023-05-07T02:24:48;8.75;;;6.00;;
38053;SDS011;23859;50.672;7.164;2023-05-07T02:27:14;9.65;;;6.03;;
38053;SDS011;23859;50.672;7.164;2023-05-07T02:29:40;9.13;;;6.18;;
38053;SDS011;23859;50.672;7.164;2023-05-07T02:32:06;9.20;;;5.78;;
38053;SDS011;23859;50.672;7.164;2023-05-07T02:34:32;11.10;;;6.35;;
38053;SDS011;23859;50.672;7.164;2023-05-07T02:36:58;9.88;;;6.53;;
38053;SDS011;23859;50.672;7.164;2023-05-07T02:39:24;11.27;;;7.22;;
38053;SDS011;23859;50.672;7.164;2023-05-07T02:41:51;10.00;;;5.70;;
38053;SDS011;23859;50.672;7.164;2023-05-07T02:44:17;11.02;;;7.00;;
38053;SDS011;23859;50.672;7.164;2023-05-07T02:46:43;11.75;;;6.88;;
38053;SDS011;23859;50.672;7.164;2023-05-07T02:49:09;13.77;;;8.38;;
38053;SDS011;23859;50.672;7.164;2023-05-07T02:51:35;13.15;;;8.57;;
38053;SDS011;23859;50.672;7.164;2023-05-07T02:54:01;14.00;;;9.23;;
38053;SDS011;23859;50.672;7.164;2023-05-07T02:56:27;17.50;;;8.43;;
38053;SDS011;23859;50.672;7.164;2023-05-07T02:58:53;9.32;;;7.43;;
38053;SDS011;23859;50.672;7.164;2023-05-07T03:01:19;17.30;;;8.60;;
38053;SDS011;23859;50.672;7.164;2023-05-07T03:03:45;14.30;;;8.50;;
38053;SDS011;23859;50.672;7.164;2023-05-07T03:06:11;19.42;;;10.43;;
38053;SDS011;23859;50.672;7.164;2023-05-07T03:08:37;18.63;;;11.60;;
38053;SDS011;23859;50.672;7.164;2023-05-07T03:11:03;16.27;;;11.35;;
38053;SDS011;23859;50.672;7.164;2023-05-07T03:13:29;18.35;;;10.77;;
38053;SDS011;23859;50.672;7.164;2023-05-07T03:15:55;15.63;;;10.73;;
38053;SDS011;23859;50.672;7.164;2023-05-07T03:18:21;21.33;;;11.73;;
38053;SDS011;23859;50.672;7.164;2023-05-07T03:20:48;18.13;;;11.32;;
38053;SDS011;23859;50.672;7.164;2023-05-07T03:23:14;16.58;;;10.75;;
38053;SDS011;23859;50.672;7.164;2023-05-07T03:25:40;18.80;;;10.52;;
38053;SDS011;23859;50.672;7.164;2023-05-07T03:28:06;15.82;;;10.40;;
38053;SDS011;23859;50.672;7.164;2023-05-07T03:30:32;17.63;;;9.90;;
38053;SDS011;23859;50.672;7.164;2023-05-07T03:32:58;18.65;;;10.68;;
38053;SDS011;23859;50.672;7.164;2023-05-07T03:35:24;17.05;;;10.25;;
38053;SDS011;23859;50.672;7.164;2023-05-07T03:37:51;17.10;;;10.15;;
38053;SDS011;23859;50.672;7.164;2023-05-07T03:40:17;15.77;;;10.43;;
38053;SDS011;23859;50.672;7.164;2023-05-07T03:42:43;21.05;;;10.50;;
38053;SDS011;23859;50.672;7.164;2023-05-07T03:45:16;17.08;;;10.20;;
38053;SDS011;23859;50.672;7.164;2023-05-07T03:47:42;15.02;;;10.18;;
38053;SDS011;23859;50.672;7.164;2023-05-07T03:50:09;17.55;;;9.93;;
38053;SDS011;23859;50.672;7.164;2023-05-07T03:52:35;20.80;;;10.80;;
38053;SDS011;23859;50.672;7.164;2023-05-07T03:55:01;24.35;;;12.80;;
38053;SDS011;23859;50.672;7.164;2023-05-07T03:57:27;15.02;;;10.25;;
38053;SDS011;23859;50.672;7.164;2023-05-07T03:59:53;15.82;;;10.43;;
38053;SDS011;23859;50.672;7.164;2023-05-07T04:02:19;20.88;;;11.32;;
38053;SDS011;23859;50.672;7.164;2023-05-07T04:04:45;19.85;;;12.05;;
38053;SDS011;23859;50.672;7.164;2023-05-07T04:07:14;21.35;;;11.63;;
38053;SDS011;23859;50.672;7.164;2023-05-07T04:09:40;17.48;;;11.07;;
38053;SDS011;23859;50.672;7.164;2023-05-07T04:12:06;22.70;;;13.32;;
38053;SDS011;23859;50.672;7.164;2023-05-07T04:14:32;18.83;;;12.05;;
38053;SDS011;23859;50.672;7.164;2023-05-07T04:16:59;21.60;;;12.68;;
38053;SDS011;23859;50.672;7.164;2023-05-07T04:19:25;19.17;;;12.48;;
38053;SDS011;23859;50.672;7.164;2023-05-07T04:21:51;20.55;;;12.48;;
38053;SDS011;23859;50.672;7.164;2023-05-07T04:24:17;22.13;;;12.73;;
38053;SDS011;23859;50.672;7.164;2023-05-07T04:26:43;19.70;;;11.75;;
38053;SDS011;23859;50.672;7.164;2023-05-07T04:29:09;18.40;;;11.80;;
38053;SDS011;23859;50.672;7.164;2023-05-07T04:31:36;19.55;;;11.77;;
38053;SDS011;23859;50.672;7.164;2023-05-07T04:34:02;15.57;;;10.80;;
38053;SDS011;23859;50.672;7.164;2023-05-07T04:36:32;16.83;;;10.27;;
38053;SDS011;23859;50.672;7.164;2023-05-07T04:38:58;16.02;;;9.73;;
38053;SDS011;23859;50.672;7.164;2023-05-07T04:41:25;16.55;;;9.73;;
38053;SDS011;23859;50.672;7.164;2023-05-07T04:43:51;18.42;;;9.63;;
38053;SDS011;23859;50.672;7.164;2023-05-07T04:46:17;16.17;;;9.55;;
38053;SDS011;23859;50.672;7.164;2023-05-07T04:48:43;14.50;;;9.60;;
38053;SDS011;23859;50.672;7.164;2023-05-07T04:51:09;16.23;;;9.50;;
38053;SDS011;23859;50.672;7.164;2023-05-07T04:53:37;17.27;;;10.90;;
38053;SDS011;23859;50.672;7.164;2023-05-07T04:56:03;17.50;;;9.45;;
38053;SDS011;23859;50.672;7.164;2023-05-07T04:58:29;17.42;;;9.95;;
38053;SDS011;23859;50.672;7.164;2023-05-07T05:00:56;17.15;;;10.05;;
38053;SDS011;23859;50.672;7.164;2023-05-07T05:03:23;20.38;;;10.25;;
38053;SDS011;23859;50.672;7.164;2023-05-07T05:05:50;19.55;;;10.05;;
38053;SDS011;23859;50.672;7.164;2023-05-07T05:08:17;18.55;;;10.43;;
38053;SDS011;23859;50.672;7.164;2023-05-07T05:10:43;16.95;;;11.43;;
38053;SDS011;23859;50.672;7.164;2023-05-07T05:13:10;18.58;;;10.77;;
38053;SDS011;23859;50.672;7.164;2023-05-07T05:15:38;20.55;;;11.35;;
38053;SDS011;23859;50.672;7.164;2023-05-07T05:18:04;18.88;;;12.15;;
38053;SDS011;23859;50.672;7.164;2023-05-07T05:20:30;20.02;;;10.85;;
38053;SDS011;23859;50.672;7.164;2023-05-07T05:22:56;22.38;;;13.13;;
38053;SDS011;23859;50.672;7.164;2023-05-07T05:25:22;18.15;;;11.32;;
38053;SDS011;23859;50.672;7.164;2023-05-07T05:27:48;18.33;;;10.82;;
38053;SDS011;23859;50.672;7.164;2023-05-07T05:30:14;19.17;;;11.30;;
38053;SDS011;23859;50.672;7.164;2023-05-07T05:32:40;17.42;;;11.55;;
38053;SDS011;23859;50.672;7.164;2023-05-07T05:35:06;18.65;;;10.90;;
38053;SDS011;23859;50.672;7.164;2023-05-07T05:37:33;17.90;;;11.05;;
38053;SDS011;23859;50.672;7.164;2023-05-07T05:39:59;18.90;;;11.43;;
38053;SDS011;23859;50.672;7.164;2023-05-07T05:42:25;18.00;;;11.32;;
38053;SDS011;23859;50.672;7.164;2023-05-07T05:44:51;16.13;;;10.15;;
38053;SDS011;23859;50.672;7.164;2023-05-07T05:47:17;16.20;;;9.77;;
38053;SDS011;23859;50.672;7.164;2023-05-07T05:49:43;13.32;;;8.48;;
38053;SDS011;23859;50.672;7.164;2023-05-07T05:52:12;13.85;;;7.90;;
38053;SDS011;23859;50.672;7.164;2023-05-07T05:54:39;14.35;;;8.50;;
38053;SDS011;23859;50.672;7.164;2023-05-07T05:57:05;12.10;;;8.23;;
38053;SDS011;23859;50.672;7.164;2023-05-07T05:59:31;14.57;;;7.93;;
38053;SDS011;23859;50.672;7.164;2023-05-07T06:01:57;14.48;;;8.00;;
38053;SDS011;23859;50.672;7.164;2023-05-07T06:04:23;13.63;;;7.93;;
38053;SDS011;23859;50.672;7.164;2023-05-07T06:06:49;16.13;;;7.72;;
38053;SDS011;23859;50.672;7.164;2023-05-07T06:09:15;12.45;;;6.82;;
38053;SDS011;23859;50.672;7.164;2023-05-07T06:11:41;9.20;;;6.45;;
38053;SDS011;23859;50.672;7.164;2023-05-07T06:14:07;8.13;;;6.47;;
38053;SDS011;23859;50.672;7.164;2023-05-07T06:16:33;6.85;;;5.95;;
38053;SDS011;23859;50.672;7.164;2023-05-07T06:19:00;8.30;;;5.63;;
38053;SDS011;23859;50.672;7.164;2023-05-07T06:21:26;8.00;;;5.47;;
38053;SDS011;23859;50.672;7.164;2023-05-07T06:23:52;6.63;;;4.88;;
38053;SDS011;23859;50.672;7.164;2023-05-07T06:26:19;10.23;;;4.40;;
38053;SDS011;23859;50.672;7.164;2023-05-07T06:28:46;5.18;;;3.55;;
38053;SDS011;23859;50.672;7.164;2023-05-07T06:31:13;6.40;;;3.88;;
38053;SDS011;23859;50.672;7.164;2023-05-07T06:33:45;4.80;;;2.97;;
38053;SDS011;23859;50.672;7.164;2023-05-07T06:36:11;5.30;;;2.92;;
38053;SDS011;23859;50.672;7.164;2023-05-07T06:38:37;4.47;;;3.03;;
38053;SDS011;23859;50.672;7.164;2023-05-07T06:41:05;13.07;;;3.40;;
38053;SDS011;23859;50.672;7.164;2023-05-07T06:43:31;4.10;;;2.75;;
38053;SDS011;23859;50.672;7.164;2023-05-07T06:45:57;4.15;;;2.83;;
38053;SDS011;23859;50.672;7.164;2023-05-07T06:48:23;5.03;;;2.90;;
38053;SDS011;23859;50.672;7.164;2023-05-07T06:50:49;5.10;;;2.83;;
38053;SDS011;23859;50.672;7.164;2023-05-07T06:53:15;3.92;;;2.90;;
38053;SDS011;23859;50.672;7.164;2023-05-07T06:55:42;8.88;;;3.13;;
38053;SDS011;23859;50.672;7.164;2023-05-07T06:58:08;5.75;;;3.17;;
38053;SDS011;23859;50.672;7.164;2023-05-07T07:00:34;3.95;;;3.55;;
38053;SDS011;23859;50.672;7.164;2023-05-07T07:03:00;4.32;;;2.90;;
38053;SDS011;23859;50.672;7.164;2023-05-07T07:05:26;7.32;;;3.70;;
38053;SDS011;23859;50.672;7.164;2023-05-07T07:07:52;6.53;;;3.65;;
38053;SDS011;23859;50.672;7.164;2023-05-07T07:10:18;5.82;;;3.65;;
38053;SDS011;23859;50.672;7.164;2023-05-07T07:12:45;8.95;;;3.65;;
38053;SDS011;23859;50.672;7.164;2023-05-07T07:15:11;5.93;;;3.67;;
38053;SDS011;23859;50.672;7.164;2023-05-07T07:17:38;8.57;;;4.10;;
38053;SDS011;23859;50.672;7.164;2023-05-07T07:20:04;6.85;;;4.50;;
38053;SDS011;23859;50.672;7.164;2023-05-07T07:22:31;6.03;;;3.88;;
38053;SDS011;23859;50.672;7.164;2023-05-07T07:24:57;8.50;;;3.70;;
38053;SDS011;23859;50.672;7.164;2023-05-07T07:27:23;7.57;;;3.97;;
38053;SDS011;23859;50.672;7.164;2023-05-07T07:29:49;4.78;;;3.60;;
38053;SDS011;23859;50.672;7.164;2023-05-07T07:32:15;7.18;;;4.00;;
38053;SDS011;23859;50.672;7.164;2023-05-07T07:34:41;7.35;;;3.75;;
38053;SDS011;23859;50.672;7.164;2023-05-07T07:37:07;3.58;;;2.95;;
38053;SDS011;23859;50.672;7.164;2023-05-07T07:39:33;5.38;;;3.40;;
38053;SDS011;23859;50.672;7.164;2023-05-07T07:42:00;22.98;;;4.78;;
38053;SDS011;23859;50.672;7.164;2023-05-07T07:44:27;5.70;;;3.97;;
38053;SDS011;23859;50.672;7.164;2023-05-07T07:46:53;5.78;;;3.30;;
38053;SDS011;23859;50.672;7.164;2023-05-07T07:49:19;7.38;;;3.28;;
38053;SDS011;23859;50.672;7.164;2023-05-07T07:51:45;4.32;;;3.08;;
38053;SDS011;23859;50.672;7.164;2023-05-07T07:54:11;6.95;;;3.28;;
38053;SDS011;23859;50.672;7.164;2023-05-07T07:56:37;3.75;;;3.00;;
38053;SDS011;23859;50.672;7.164;2023-05-07T07:59:03;7.75;;;2.85;;
38053;SDS011;23859;50.672;7.164;2023-05-07T08:01:30;3.17;;;2.65;;
38053;SDS011;23859;50.672;7.164;2023-05-07T08:03:56;2.95;;;2.65;;
38053;SDS011;23859;50.672;7.164;2023-05-07T08:06:27;8.00;;;2.35;;
38053;SDS011;23859;50.672;7.164;2023-05-07T08:08:54;3.30;;;2.00;;
38053;SDS011;23859;50.672;7.164;2023-05-07T08:11:20;4.55;;;2.40;;
38053;SDS011;23859;50.672;7.164;2023-05-07T08:13:46;3.10;;;2.20;;
38053;SDS011;23859;50.672;7.164;2023-05-07T08:16:13;4.72;;;2.50;;
38053;SDS011;23859;50.672;7.164;2023-05-07T08:18:39;4.82;;;2.45;;
38053;SDS011;23859;50.672;7.164;2023-05-07T08:21:05;5.18;;;3.03;;
38053;SDS011;23859;50.672;7.164;2023-05-07T08:23:31;5.72;;;2.83;;
38053;SDS011;23859;50.672;7.164;2023-05-07T08:25:59;3.63;;;2.42;;
38053;SDS011;23859;50.672;7.164;2023-05-07T08:28:25;8.82;;;2.95;;
38053;SDS011;23859;50.672;7.164;2023-05-07T08:30:51;7.00;;;2.88;;
38053;SDS011;23859;50.672;7.164;2023-05-07T08:33:17;4.35;;;2.67;;
38053;SDS011;23859;50.672;7.164;2023-05-07T08:35:43;2.80;;;2.20;;
38053;SDS011;23859;50.672;7.164;2023-05-07T08:38:09;4.88;;;2.50;;
38053;SDS011;23859;50.672;7.164;2023-05-07T08:40:39;8.02;;;2.33;;
38053;SDS011;23859;50.672;7.164;2023-05-07T08:43:06;3.92;;;2.05;;
38053;SDS011;23859;50.672;7.164;2023-05-07T08:45:35;5.35;;;1.80;;
38053;SDS011;23859;50.672;7.164;2023-05-07T08:48:05;2.67;;;1.88;;
38053;SDS011;23859;50.672;7.164;2023-05-07T08:50:39;2.85;;;2.10;;
38053;SDS011;23859;50.672;7.164;2023-05-07T08:53:05;7.40;;;2.70;;
38053;SDS011;23859;50.672;7.164;2023-05-07T08:55:31;3.90;;;1.75;;
38053;SDS011;23859;50.672;7.164;2023-05-07T08:57:58;3.92;;;2.20;;
38053;SDS011;23859;50.672;7.164;2023-05-07T09:00:24;4.20;;;1.90;;
38053;SDS011;23859;50.672;7.164;2023-05-07T09:02:50;2.70;;;2.13;;
38053;SDS011;23859;50.672;7.164;2023-05-07T09:05:17;5.28;;;2.20;;
38053;SDS011;23859;50.672;7.164;2023-05-07T09:07:43;1.95;;;1.75;;
38053;SDS011;23859;50.672;7.164;2023-05-07T09:10:10;3.67;;;1.80;;
38053;SDS011;23859;50.672;7.164;2023-05-07T09:12:37;2.65;;;1.77;;
38053;SDS011;23859;50.672;7.164;2023-05-07T09:15:05;13.07;;;2.58;;
38053;SDS011;23859;50.672;7.164;2023-05-07T09:17:32;2.20;;;1.60;;
38053;SDS011;23859;50.672;7.164;2023-05-07T09:20:04;3.42;;;2.00;;
38053;SDS011;23859;50.672;7.164;2023-05-07T09:22:32;2.05;;;1.55;;
38053;SDS011;23859;50.672;7.164;2023-05-07T09:24:58;5.03;;;2.40;;
38053;SDS011;23859;50.672;7.164;2023-05-07T09:27:24;2.50;;;1.65;;
38053;SDS011;23859;50.672;7.164;2023-05-07T09:29:51;4.03;;;1.90;;
38053;SDS011;23859;50.672;7.164;2023-05-07T09:32:18;2.60;;;1.67;;
38053;SDS011;23859;50.672;7.164;2023-05-07T09:34:44;4.43;;;1.58;;
38053;SDS011;23859;50.672;7.164;2023-05-07T09:37:12;2.22;;;1.40;;
38053;SDS011;23859;50.672;7.164;2023-05-07T09:39:46;4.07;;;1.75;;
38053;SDS011;23859;50.672;7.164;2023-05-07T09:42:13;6.78;;;1.85;;
38053;SDS011;23859;50.672;7.164;2023-05-07T09:44:40;4.20;;;1.98;;
38053;SDS011;23859;50.672;7.164;2023-05-07T09:47:06;3.30;;;1.63;;
38053;SDS011;23859;50.672;7.164;2023-05-07T09:49:34;2.03;;;1.80;;
38053;SDS011;23859;50.672;7.164;2023-05-07T09:52:02;1.95;;;1.40;;
38053;SDS011;23859;50.672;7.164;2023-05-07T09:54:31;1.98;;;1.42;;
38053;SDS011;23859;50.672;7.164;2023-05-07T09:56:58;1.45;;;1.35;;
38053;SDS011;23859;50.672;7.164;2023-05-07T09:59:27;1.92;;;1.60;;
38053;SDS011;23859;50.672;7.164;2023-05-07T10:01:57;7.90;;;2.15;;
38053;SDS011;23859;50.672;7.164;2023-05-07T10:04:24;2.50;;;1.50;;
38053;SDS011;23859;50.672;7.164;2023-05-07T10:06:51;2.33;;;1.33;;
38053;SDS011;23859;50.672;7.164;2023-05-07T10:09:18;2.25;;;1.55;;
38053;SDS011;23859;50.672;7.164;2023-05-07T10:11:44;2.45;;;2.05;;
38053;SDS011;23859;50.672;7.164;2023-05-07T10:14:13;6.68;;;1.80;;
38053;SDS011;23859;50.672;7.164;2023-05-07T10:16:40;1.77;;;1.60;;
38053;SDS011;23859;50.672;7.164;2023-05-07T10:19:07;5.57;;;1.50;;
38053;SDS011;23859;50.672;7.164;2023-05-07T10:21:38;2.65;;;1.45;;
38053;SDS011;23859;50.672;7.164;2023-05-07T10:24:10;5.05;;;1.60;;
38053;SDS011;23859;50.672;7.164;2023-05-07T10:26:47;4.63;;;1.60;;
38053;SDS011;23859;50.672;7.164;2023-05-07T10:29:21;2.00;;;1.73;;
38053;SDS011;23859;50.672;7.164;2023-05-07T10:35:16;2.67;;;1.40;;
38053;SDS011;23859;50.672;7.164;2023-05-07T10:37:47;3.20;;;1.25;;
38053;SDS011;23859;50.672;7.164;2023-05-07T10:40:14;3.60;;;1.48;;
38053;SDS011;23859;50.672;7.164;2023-05-07T10:45:21;3.03;;;1.42;;
38053;SDS011;23859;50.672;7.164;2023-05-07T10:48:05;2.22;;;1.50;;
38053;SDS011;23859;50.672;7.164;2023-05-07T10:50:33;3.42;;;1.38;;
38053;SDS011;23859;50.672;7.164;2023-05-07T10:58:23;1.80;;;1.10;;
38053;SDS011;23859;50.672;7.164;2023-05-07T11:00:55;2.35;;;1.35;;
38053;SDS011;23859;50.672;7.164;2023-05-07T11:03:25;1.90;;;1.35;;
38053;SDS011;23859;50.672;7.164;2023-05-07T11:11:42;2.25;;;1.40;;
38053;SDS011;23859;50.672;7.164;2023-05-07T11:14:13;1.02;;;1.00;;
38053;SDS011;23859;50.672;7.164;2023-05-07T11:17:02;2.10;;;1.60;;
38053;SDS011;23859;50.672;7.164;2023-05-07T11:25:01;2.13;;;1.35;;
38053;SDS011;23859;50.672;7.164;2023-05-07T11:27:28;1.23;;;1.13;;
38053;SDS011;23859;50.672;7.164;2023-05-07T11:29:54;1.85;;;1.40;;
38053;SDS011;23859;50.672;7.164;2023-05-07T11:34:52;1.70;;;1.23;;
38053;SDS011;23859;50.672;7.164;2023-05-07T11:37:19;2.40;;;1.27;;
38053;SDS011;23859;50.672;7.164;2023-05-07T11:39:45;2.20;;;1.40;;
38053;SDS011;23859;50.672;7.164;2023-05-07T11:42:31;2.70;;;1.40;;
38053;SDS011;23859;50.672;7.164;2023-05-07T11:44:59;1.63;;;1.38;;
38053;SDS011;23859;50.672;7.164;2023-05-07T11:47:26;1.27;;;1.10;;
38053;SDS011;23859;50.672;7.164;2023-05-07T11:49:55;2.80;;;1.60;;
38053;SDS011;23859;50.672;7.164;2023-05-07T11:52:21;1.85;;;1.33;;
38053;SDS011;23859;50.672;7.164;2023-05-07T11:54:49;2.13;;;1.25;;
38053;SDS011;23859;50.672;7.164;2023-05-07T11:57:19;4.07;;;1.67;;
38053;SDS011;23859;50.672;7.164;2023-05-07T11:59:46;2.28;;;1.55;;
38053;SDS011;23859;50.672;7.164;2023-05-07T12:02:16;1.98;;;1.65;;
38053;SDS011;23859;50.672;7.164;2023-05-07T12:04:43;2.08;;;1.63;;
38053;SDS011;23859;50.672;7.164;2023-05-07T12:07:12;1.77;;;1.25;;
38053;SDS011;23859;50.672;7.164;2023-05-07T12:09:42;2.80;;;1.70;;
38053;SDS011;23859;50.672;7.164;2023-05-07T12:12:09;2.33;;;1.17;;
38053;SDS011;23859;50.672;7.164;2023-05-07T12:14:39;1.58;;;1.13;;
38053;SDS011;23859;50.672;7.164;2023-05-07T12:17:09;3.28;;;1.40;;
38053;SDS011;23859;50.672;7.164;2023-05-07T12:19:36;1.42;;;1.20;;
38053;SDS011;23859;50.672;7.164;2023-05-07T12:22:04;2.15;;;1.20;;
38053;SDS011;23859;50.672;7.164;2023-05-07T12:24:47;1.17;;;1.08;;
38053;SDS011;23859;50.672;7.164;2023-05-07T12:29:48;3.88;;;1.20;;
38053;SDS011;23859;50.672;7.164;2023-05-07T12:34:42;2.28;;;1.33;;
38053;SDS011;23859;50.672;7.164;2023-05-07T12:37:09;1.40;;;1.30;;
38053;SDS011;23859;50.672;7.164;2023-05-07T12:39:35;2.40;;;1.25;;
38053;SDS011;23859;50.672;7.164;2023-05-07T12:42:02;1.30;;;1.20;;
38053;SDS011;23859;50.672;7.164;2023-05-07T12:44:31;2.67;;;1.20;;
38053;SDS011;23859;50.672;7.164;2023-05-07T12:47:01;1.40;;;1.15;;
38053;SDS011;23859;50.672;7.164;2023-05-07T12:49:28;2.80;;;1.23;;
38053;SDS011;23859;50.672;7.164;2023-05-07T12:51:54;2.55;;;1.42;;
38053;SDS011;23859;50.672;7.164;2023-05-07T12:54:27;1.30;;;1.20;;
38053;SDS011;23859;50.672;7.164;2023-05-07T12:57:00;1.85;;;1.10;;
38053;SDS011;23859;50.672;7.164;2023-05-07T12:59:37;1.40;;;1.30;;
38053;SDS011;23859;50.672;7.164;2023-05-07T13:02:05;4.00;;;2.13;;
38053;SDS011;23859;50.672;7.164;2023-05-07T13:04:32;2.45;;;1.48;;
38053;SDS011;23859;50.672;7.164;2023-05-07T13:06:58;1.83;;;1.10;;
38053;SDS011;23859;50.672;7.164;2023-05-07T13:09:25;2.78;;;1.02;;
38053;SDS011;23859;50.672;7.164;2023-05-07T13:11:52;2.45;;;1.30;;
38053;SDS011;23859;50.672;7.164;2023-05-07T13:14:18;4.10;;;1.17;;
38053;SDS011;23859;50.672;7.164;2023-05-07T13:16:45;1.83;;;1.73;;
38053;SDS011;23859;50.672;7.164;2023-05-07T13:19:12;3.50;;;1.27;;
38053;SDS011;23859;50.672;7.164;2023-05-07T13:21:38;1.45;;;1.20;;
38053;SDS011;23859;50.672;7.164;2023-05-07T13:24:04;6.32;;;1.10;;
38053;SDS011;23859;50.672;7.164;2023-05-07T13:26:31;2.30;;;1.48;;
38053;SDS011;23859;50.672;7.164;2023-05-07T13:28:57;1.75;;;1.55;;
38053;SDS011;23859;50.672;7.164;2023-05-07T13:31:23;2.63;;;1.23;;
38053;SDS011;23859;50.672;7.164;2023-05-07T13:33:50;2.30;;;1.40;;
38053;SDS011;23859;50.672;7.164;2023-05-07T13:36:17;1.92;;;1.30;;
38053;SDS011;23859;50.672;7.164;2023-05-07T13:38:43;3.38;;;1.70;;
38053;SDS011;23859;50.672;7.164;2023-05-07T13:41:09;2.65;;;1.27;;
38053;SDS011;23859;50.672;7.164;2023-05-07T13:43:37;1.00;;;0.90;;
38053;SDS011;23859;50.672;7.164;2023-05-07T13:46:03;2.10;;;1.38;;
38053;SDS011;23859;50.672;7.164;2023-05-07T13:48:29;2.67;;;1.80;;
38053;SDS011;23859;50.672;7.164;2023-05-07T13:50:55;2.10;;;1.20;;
38053;SDS011;23859;50.672;7.164;2023-05-07T13:53:21;2.35;;;1.67;;
38053;SDS011;23859;50.672;7.164;2023-05-07T13:55:47;2.83;;;1.70;;
38053;SDS011;23859;50.672;7.164;2023-05-07T13:58:13;3.55;;;2.47;;
38053;SDS011;23859;50.672;7.164;2023-05-07T14:00:39;2.42;;;1.63;;
38053;SDS011;23859;50.672;7.164;2023-05-07T14:03:05;3.92;;;2.10;;
38053;SDS011;23859;50.672;7.164;2023-05-07T14:05:31;3.67;;;1.67;;
38053;SDS011;23859;50.672;7.164;2023-05-07T14:07:57;2.13;;;1.48;;
38053;SDS011;23859;50.672;7.164;2023-05-07T14:10:24;2.40;;;1.50;;
38053;SDS011;23859;50.672;7.164;2023-05-07T14:12:50;10.95;;;2.67;;
38053;SDS011;23859;50.672;7.164;2023-05-07T14:15:17;10.95;;;3.25;;
38053;SDS011;23859;50.672;7.164;2023-05-07T14:17:44;9.45;;;3.80;;
38053;SDS011;23859;50.672;7.164;2023-05-07T14:20:10;9.07;;;3.20;;
38053;SDS011;23859;50.672;7.164;2023-05-07T14:22:37;16.05;;;4.85;;
38053;SDS011;23859;50.672;7.164;2023-05-07T14:25:03;12.60;;;4.45;;
38053;SDS011;23859;50.672;7.164;2023-05-07T14:27:30;8.52;;;4.53;;
38053;SDS011;23859;50.672;7.164;2023-05-07T14:29:56;6.72;;;3.95;;
38053;SDS011;23859;50.672;7.164;2023-05-07T14:32:22;10.30;;;5.05;;
38053;SDS011;23859;50.672;7.164;2023-05-07T14:34:48;11.35;;;5.00;;
38053;SDS011;23859;50.672;7.164;2023-05-07T14:37:15;7.18;;;4.32;;
38053;SDS011;23859;50.672;7.164;2023-05-07T14:39:41;12.60;;;5.45;;
38053;SDS011;23859;50.672;7.164;2023-05-07T14:42:07;13.15;;;5.15;;
38053;SDS011;23859;50.672;7.164;2023-05-07T14:44:34;10.88;;;5.18;;
38053;SDS011;23859;50.672;7.164;2023-05-07T14:47:00;9.40;;;5.38;;
38053;SDS011;23859;50.672;7.164;2023-05-07T14:49:26;10.85;;;4.72;;
38053;SDS011;23859;50.672;7.164;2023-05-07T14:51:53;12.45;;;4.95;;
38053;SDS011;23859;50.672;7.164;2023-05-07T14:54:21;10.82;;;4.75;;
38053;SDS011;23859;50.672;7.164;2023-05-07T14:56:48;20.70;;;8.18;;
38053;SDS011;23859;50.672;7.164;2023-05-07T14:59:14;10.25;;;4.45;;
38053;SDS011;23859;50.672;7.164;2023-05-07T15:01:43;7.65;;;5.00;;
38053;SDS011;23859;50.672;7.164;2023-05-07T15:04:10;11.68;;;4.70;;
38053;SDS011;23859;50.672;7.164;2023-05-07T15:06:36;10.77;;;5.22;;
38053;SDS011;23859;50.672;7.164;2023-05-07T15:09:02;7.95;;;5.53;;